Time;durP1;ratioP1;P1;durP2;ratioP2;P2;SDS_P1;SDS_P2;PMS_P1;PMS_P2;Temp;Humidity;BMP_temperature;BMP_pressure;BME280_temperature;BME280_humidity;BME280_pressure;Samples;Min_cycle;Max_cycle;Signal;HPM_P1;HPM_P2
2021/08/23 00:02:11;;;;;;;11.17;3.40;;;15.50;1.00;;;;;;5077652;28;20993;-80
2021/08/23 00:04:40;;;;;;;14.70;3.70;;;15.50;1.00;;;;;;5071994;28;20804;-78
2021/08/23 00:07:22;;;;;;;6.97;3.17;;;15.50;1.00;;;;;;5067694;28;20465;-78
2021/08/23 00:09:53;;;;;;;5.17;3.00;;;15.50;1.00;;;;;;5076756;28;20409;-78
2021/08/23 00:12:58;;;;;;;6.13;3.10;;;15.50;1.00;;;;;;5076730;28;20407;-78
2021/08/23 00:15:41;;;;;;;6.13;2.93;;;15.50;1.00;;;;;;5071604;28;20411;-78
2021/08/23 00:18:23;;;;;;;7.43;3.10;;;15.40;1.00;;;;;;5057457;28;20410;-78
2021/08/23 00:21:01;;;;;;;14.50;3.97;;;15.40;1.00;;;;;;5055500;28;20446;-78
2021/08/23 00:23:35;;;;;;;5.30;3.40;;;15.40;1.00;;;;;;5066141;28;20383;-78
2021/08/23 00:26:01;;;;;;;7.90;3.70;;;15.30;1.00;;;;;;5073838;28;20392;-78
2021/08/23 00:28:34;;;;;;;6.30;3.87;;;15.30;1.00;;;;;;5075114;28;20394;-78
2021/08/23 00:31:00;;;;;;;6.33;3.00;;;15.30;1.00;;;;;;5075815;28;20919;-78
2021/08/23 00:33:26;;;;;;;7.97;3.80;;;15.30;1.00;;;;;;5075077;28;20364;-78
2021/08/23 00:35:58;;;;;;;4.03;3.23;;;15.30;1.00;;;;;;5055368;28;20172;-78
2021/08/23 00:38:35;;;;;;;10.07;3.63;;;15.30;1.00;;;;;;5056837;28;20180;-78
2021/08/23 00:41:10;;;;;;;4.30;3.80;;;15.30;1.00;;;;;;5055348;28;20448;-78
2021/08/23 00:43:36;;;;;;;7.43;3.47;;;15.30;1.00;;;;;;5054191;28;20388;-78
2021/08/23 00:46:03;;;;;;;7.67;3.60;;;15.20;1.00;;;;;;5055599;28;20418;-78
2021/08/23 00:48:36;;;;;;;4.73;3.20;;;15.30;1.00;;;;;;5056359;28;20156;-78
2021/08/23 00:51:03;;;;;;;4.00;3.40;;;15.30;1.00;;;;;;5074834;28;20527;-78
2021/08/23 00:53:29;;;;;;;14.00;4.13;;;15.30;1.00;;;;;;5074643;28;20447;-78
2021/08/23 00:56:04;;;;;;;5.70;3.63;;;15.30;1.00;;;;;;5069809;28;20411;-78
2021/08/23 00:58:35;;;;;;;21.23;3.90;;;15.40;1.00;;;;;;5053516;28;20484;-78
2021/08/23 01:01:09;;;;;;;7.67;3.87;;;15.30;1.00;;;;;;5055007;28;20469;-78
2021/08/23 01:04:18;;;;;;;6.70;4.20;;;15.40;1.00;;;;;;5057820;28;20453;-78
2021/08/23 01:06:54;;;;;;;7.03;3.57;;;15.40;1.00;;;;;;5064017;28;20408;-78
2021/08/23 01:09:36;;;;;;;5.97;3.50;;;15.60;1.00;;;;;;5053340;28;20906;-78
2021/08/23 01:12:23;;;;;;;8.93;3.60;;;15.50;1.00;;;;;;5057834;28;20472;-78
2021/08/23 01:14:59;;;;;;;8.03;4.10;;;15.50;1.00;;;;;;5015599;28;1149990;-78
2021/08/23 01:17:25;;;;;;;10.60;3.50;;;15.60;1.00;;;;;;5067651;28;20179;-78
2021/08/23 01:19:57;;;;;;;5.47;3.53;;;15.60;1.00;;;;;;5068496;28;20487;-78
2021/08/23 01:22:25;;;;;;;5.30;3.90;;;15.70;1.00;;;;;;5065536;28;20417;-78
2021/08/23 01:24:55;;;;;;;15.03;4.10;;;15.70;1.00;;;;;;5074195;28;20407;-78
2021/08/23 01:27:26;;;;;;;4.57;4.00;;;15.70;1.00;;;;;;5067073;28;20810;-78
2021/08/23 01:30:02;;;;;;;8.70;3.73;;;15.80;1.00;;;;;;5075162;28;21107;-78
2021/08/23 01:32:35;;;;;;;4.13;3.50;;;15.80;1.00;;;;;;5065305;28;20899;-78
2021/08/23 01:35:06;;;;;;;6.93;3.90;;;15.80;1.00;;;;;;5065143;28;20976;-78
2021/08/23 01:37:33;;;;;;;6.60;3.60;;;15.80;1.00;;;;;;5073770;28;20417;-78
2021/08/23 01:40:16;;;;;;;10.97;4.10;;;15.80;1.00;;;;;;5067855;28;20839;-78
2021/08/23 01:42:59;;;;;;;20.70;3.87;;;15.90;1.00;;;;;;5069584;28;20413;-78
2021/08/23 01:45:29;;;;;;;13.70;4.30;;;15.80;1.00;;;;;;5075330;28;20388;-78
2021/08/23 01:48:05;;;;;;;7.10;3.83;;;15.90;1.00;;;;;;5063198;28;20448;-78
2021/08/23 01:50:30;;;;;;;5.70;3.43;;;15.90;1.00;;;;;;5055385;28;20373;-78
2021/08/23 01:53:10;;;;;;;7.47;3.87;;;15.90;1.00;;;;;;5074083;28;20725;-78
2021/08/23 01:55:37;;;;;;;7.07;3.70;;;16.00;1.00;;;;;;5075030;28;20626;-78
2021/08/23 01:58:04;;;;;;;8.87;4.07;;;16.00;1.00;;;;;;5065374;28;20425;-78
2021/08/23 02:00:34;;;;;;;11.23;4.23;;;16.00;1.00;;;;;;5063598;28;20424;-78
2021/08/23 02:03:05;;;;;;;6.80;3.33;;;16.00;1.00;;;;;;5060755;28;20391;-78
2021/08/23 02:05:35;;;;;;;10.40;4.10;;;16.00;1.00;;;;;;5064387;28;20761;-78
2021/08/23 02:08:01;;;;;;;11.63;4.30;;;16.10;1.00;;;;;;5071394;28;20443;-78
2021/08/23 02:10:27;;;;;;;4.93;3.90;;;16.10;1.00;;;;;;5073435;28;20368;-78
2021/08/23 02:12:53;;;;;;;6.30;3.33;;;16.00;1.00;;;;;;5064641;28;20784;-78
2021/08/23 02:15:19;;;;;;;12.60;3.60;;;16.10;1.00;;;;;;5061273;28;20420;-78
2021/08/23 02:17:47;;;;;;;8.57;3.80;;;15.90;1.00;;;;;;5054561;28;20187;-78
2021/08/23 02:20:13;;;;;;;6.10;3.87;;;15.90;1.00;;;;;;5054873;28;20269;-78
2021/08/23 02:22:41;;;;;;;8.70;3.50;;;15.90;1.00;;;;;;5068539;28;20411;-78
2021/08/23 02:25:09;;;;;;;9.30;4.00;;;15.90;1.00;;;;;;5073657;28;20397;-78
2021/08/23 02:27:35;;;;;;;13.00;3.93;;;15.80;1.00;;;;;;5058412;28;20496;-78
2021/08/23 02:30:02;;;;;;;8.37;4.40;;;15.80;1.00;;;;;;5074305;28;20423;-78
2021/08/23 02:32:52;;;;;;;8.30;3.80;;;15.80;1.00;;;;;;5075322;28;20427;-78
2021/08/23 02:35:22;;;;;;;11.23;4.80;;;15.70;1.00;;;;;;5074181;28;20422;-78
2021/08/23 02:37:53;;;;;;;10.43;3.90;;;15.70;1.00;;;;;;5064963;28;20388;-78
2021/08/23 02:40:28;;;;;;;4.50;3.80;;;15.70;1.00;;;;;;5054186;28;20526;-78
2021/08/23 02:42:55;;;;;;;6.37;4.40;;;15.70;1.00;;;;;;5063341;28;20392;-78
2021/08/23 02:45:23;;;;;;;7.20;4.07;;;15.70;1.00;;;;;;5071736;28;20372;-78
2021/08/23 02:47:53;;;;;;;15.80;4.50;;;15.70;1.00;;;;;;5055040;28;20479;-78
2021/08/23 02:50:23;;;;;;;7.67;4.20;;;15.60;1.00;;;;;;5053959;28;20446;-78
2021/08/23 02:52:53;;;;;;;10.90;4.03;;;15.60;1.00;;;;;;5072304;28;20417;-78
2021/08/23 02:55:40;;;;;;;6.10;3.77;;;15.70;1.00;;;;;;5054370;28;20975;-78
2021/08/23 02:58:28;;;;;;;9.90;4.30;;;15.60;1.00;;;;;;5054225;28;20424;-78
2021/08/23 03:01:16;;;;;;;7.00;4.10;;;15.60;1.00;;;;;;5053918;28;20520;-78
2021/08/23 03:03:42;;;;;;;13.30;4.57;;;15.70;1.00;;;;;;5056575;28;20405;-78
2021/08/23 03:06:12;;;;;;;6.00;3.50;;;15.70;1.00;;;;;;5060751;28;20429;-78
2021/08/23 03:08:38;;;;;;;6.53;4.40;;;15.60;1.00;;;;;;5066709;28;20175;-78
2021/08/23 03:11:06;;;;;;;13.93;4.53;;;15.70;1.00;;;;;;5074120;28;20384;-78
2021/08/23 03:13:32;;;;;;;12.70;4.90;;;15.70;1.00;;;;;;5055016;28;20422;-78
2021/08/23 03:15:58;;;;;;;12.23;4.40;;;15.70;1.00;;;;;;5053462;28;20908;-78
2021/08/23 03:18:23;;;;;;;4.67;3.93;;;15.70;1.00;;;;;;5063329;28;20175;-78
2021/08/23 03:20:59;;;;;;;17.07;4.50;;;15.80;1.00;;;;;;5073903;28;20199;-78
2021/08/23 03:23:46;;;;;;;11.67;4.73;;;15.80;1.00;;;;;;5075774;28;20198;-78
2021/08/23 03:26:12;;;;;;;7.17;3.63;;;15.80;1.00;;;;;;5077512;28;20891;-78
2021/08/23 03:28:41;;;;;;;11.73;4.30;;;15.80;1.00;;;;;;5064242;28;20417;-78
2021/08/23 03:31:11;;;;;;;8.63;4.70;;;15.70;1.00;;;;;;5057903;28;20254;-78
2021/08/23 03:33:39;;;;;;;18.80;4.10;;;15.80;1.00;;;;;;5057847;28;20489;-78
2021/08/23 03:36:05;;;;;;;11.63;4.60;;;15.90;1.00;;;;;;5056223;28;20497;-78
2021/08/23 03:38:42;;;;;;;8.57;3.93;;;16.00;1.00;;;;;;5062704;28;20449;-78
2021/08/23 03:41:10;;;;;;;8.20;3.70;;;15.90;1.00;;;;;;5072652;28;20786;-78
2021/08/23 03:43:40;;;;;;;5.77;4.30;;;16.00;1.00;;;;;;5066643;28;20418;-78
2021/08/23 03:46:23;;;;;;;6.17;3.63;;;16.00;1.00;;;;;;5073216;28;20393;-78
2021/08/23 03:48:53;;;;;;;9.27;4.20;;;16.00;1.00;;;;;;5062545;28;20851;-78
2021/08/23 03:51:23;;;;;;;8.10;4.00;;;16.00;1.00;;;;;;5057485;28;20409;-78
2021/08/23 03:53:48;;;;;;;5.57;4.40;;;16.00;1.00;;;;;;5074778;28;20453;-78
2021/08/23 03:56:23;;;;;;;7.63;3.73;;;16.00;1.00;;;;;;5077331;28;20401;-78
2021/08/23 03:58:52;;;;;;;10.97;4.53;;;16.00;1.00;;;;;;5069710;28;20176;-78
2021/08/23 04:01:40;;;;;;;17.97;4.50;;;16.00;1.00;;;;;;5056847;28;20416;-78
2021/08/23 04:04:17;;;;;;;9.73;4.20;;;16.00;1.00;;;;;;5061874;28;20420;-78
2021/08/23 04:06:53;;;;;;;6.10;3.90;;;16.00;1.00;;;;;;5063695;28;20918;-78
2021/08/23 04:09:22;;;;;;;6.67;3.90;;;16.00;1.00;;;;;;5058287;28;20890;-78
2021/08/23 04:11:52;;;;;;;7.23;3.50;;;16.10;1.00;;;;;;5067247;28;20400;-82
2021/08/23 04:14:18;;;;;;;8.90;4.20;;;16.10;1.00;;;;;;5056736;28;20400;-83
2021/08/23 04:16:53;;;;;;;16.37;4.30;;;16.10;1.00;;;;;;5057538;28;20422;-84
2021/08/23 04:19:18;;;;;;;5.80;4.10;;;16.10;1.00;;;;;;5057483;28;20179;-75
2021/08/23 04:21:52;;;;;;;5.30;3.63;;;16.20;1.00;;;;;;5070567;28;20535;-79
2021/08/23 04:24:46;;;;;;;7.80;4.27;;;16.20;1.00;;;;;;5075157;28;20174;-79
2021/08/23 04:27:40;;;;;;;4.10;3.70;;;16.20;1.00;;;;;;5076882;28;20396;-78
2021/08/23 04:30:06;;;;;;;6.50;3.90;;;16.10;1.00;;;;;;5058624;28;20395;-79
2021/08/23 04:32:46;;;;;;;5.23;3.90;;;16.10;1.00;;;;;;5073985;28;20494;-76
2021/08/23 04:35:12;;;;;;;8.50;4.10;;;16.10;1.00;;;;;;5077071;28;20397;-78
2021/08/23 04:37:41;;;;;;;10.40;3.93;;;16.10;1.00;;;;;;5075901;28;20424;-78
2021/08/23 04:40:17;;;;;;;9.80;4.63;;;16.20;1.00;;;;;;5076335;28;20168;-78
2021/08/23 04:42:52;;;;;;;11.00;3.90;;;16.10;1.00;;;;;;5076160;28;20418;-78
2021/08/23 04:45:25;;;;;;;8.10;4.13;;;16.20;1.00;;;;;;5074669;28;20878;-87
2021/08/23 04:48:22;;;;;;;7.67;3.83;;;16.30;1.00;;;;;;5071903;28;20449;-87
2021/08/23 04:54:22;;;;;;;9.00;4.23;;;16.30;1.00;;;;;;5066124;28;20501;-88
2021/08/23 04:56:49;;;;;;;7.10;3.40;;;;;;;;;;5071475;28;20395;-88
2021/08/23 04:59:23;;;;;;;10.63;3.93;;;16.20;1.00;;;;;;5073402;28;20457;-87
2021/08/23 05:01:52;;;;;;;8.80;3.83;;;16.20;1.00;;;;;;5071732;28;20431;-87
2021/08/23 05:04:52;;;;;;;9.50;4.53;;;16.20;1.00;;;;;;5081348;28;20428;-84
2021/08/23 05:07:29;;;;;;;7.00;4.23;;;16.10;1.00;;;;;;5073460;28;20441;-83
2021/08/23 05:10:28;;;;;;;10.57;3.90;;;16.20;1.00;;;;;;5074162;28;20490;-83
2021/08/23 05:13:22;;;;;;;5.17;3.97;;;16.00;1.00;;;;;;5063318;28;20401;-84
2021/08/23 05:15:53;;;;;;;7.43;3.60;;;16.00;1.00;;;;;;5082595;28;20972;-84
2021/08/23 05:18:23;;;;;;;6.10;4.33;;;16.00;1.00;;;;;;5061216;28;20961;-84
2021/08/23 05:21:28;;;;;;;7.37;4.57;;;16.00;1.00;;;;;;5063072;28;20457;-85
2021/08/23 05:24:22;;;;;;;7.30;4.70;;;15.90;1.00;;;;;;5072649;28;20416;-84
2021/08/23 05:26:53;;;;;;;7.37;4.60;;;;;;;;;;5074506;28;20417;-84
2021/08/23 05:29:23;;;;;;;9.93;4.40;;;15.90;1.00;;;;;;5060391;28;20388;-84
2021/08/23 05:31:52;;;;;;;10.03;4.17;;;16.00;1.00;;;;;;5054316;28;20908;-84
2021/08/23 05:34:52;;;;;;;15.27;4.73;;;16.00;1.00;;;;;;5056991;28;22256;-88
2021/08/23 05:37:52;;;;;;;12.40;4.57;;;16.00;1.00;;;;;;5074870;28;20413;-88
2021/08/23 05:40:40;;;;;;;7.20;4.30;;;16.00;1.00;;;;;;5072787;28;20500;-88
2021/08/23 05:43:06;;;;;;;7.63;4.20;;;16.00;1.00;;;;;;5076617;28;20449;-86
2021/08/23 05:45:32;;;;;;;15.60;4.40;;;16.10;1.00;;;;;;5066754;28;20408;-77
2021/08/23 05:47:58;;;;;;;10.00;4.80;;;16.00;1.00;;;;;;5071791;28;20190;-78
2021/08/23 05:50:24;;;;;;;8.80;4.43;;;16.10;1.00;;;;;;5095863;28;20167;-78
2021/08/23 05:52:50;;;;;;;5.73;3.73;;;16.10;1.00;;;;;;5071844;28;20532;-80
2021/08/23 05:55:17;;;;;;;14.57;4.87;;;16.20;1.00;;;;;;5069863;28;20422;-78
2021/08/23 05:57:42;;;;;;;5.10;3.60;;;16.10;1.00;;;;;;5066271;28;20692;-79
2021/08/23 06:00:10;;;;;;;14.37;5.37;;;16.20;1.00;;;;;;5069187;28;20417;-78
2021/08/23 06:02:36;;;;;;;11.10;4.10;;;16.40;1.00;;;;;;5071981;28;20180;-78
2021/08/23 06:05:02;;;;;;;11.10;4.93;;;16.40;1.00;;;;;;5063988;28;20440;-78
2021/08/23 06:07:35;;;;;;;9.37;4.93;;;16.50;1.00;;;;;;5064710;28;20408;-78
2021/08/23 06:10:05;;;;;;;9.20;5.47;;;16.70;1.00;;;;;;5068879;28;20388;-78
2021/08/23 06:12:52;;;;;;;8.73;5.10;;;16.60;1.00;;;;;;5064443;28;20405;-77
2021/08/23 06:15:18;;;;;;;7.07;5.10;;;16.80;1.00;;;;;;5062464;28;20416;-78
2021/08/23 06:17:44;;;;;;;10.07;5.23;;;16.80;1.00;;;;;;5068779;28;20531;-78
2021/08/23 06:20:10;;;;;;;9.90;6.00;;;17.00;1.00;;;;;;5053923;28;20161;-85
2021/08/23 06:22:37;;;;;;;8.60;5.80;;;;;;;;;;5052979;28;20188;-85
2021/08/23 06:25:05;;;;;;;7.30;5.60;;;17.10;1.00;;;;;;5065904;28;20923;-85
2021/08/23 06:27:31;;;;;;;12.23;6.10;;;17.20;1.00;;;;;;5065898;28;20412;-84
2021/08/23 06:29:57;;;;;;;9.00;5.83;;;17.20;1.00;;;;;;5073704;28;20872;-84
2021/08/23 06:32:22;;;;;;;8.37;6.77;;;17.30;1.00;;;;;;5071974;28;20407;-84
2021/08/23 06:34:48;;;;;;;11.20;5.97;;;;;;;;;;5052851;28;20208;-85
2021/08/23 06:37:17;;;;;;;8.77;6.33;;;;;;;;;;5052400;28;20244;-84
2021/08/23 06:39:43;;;;;;;9.13;5.77;;;;;;;;;;5069031;28;20392;-84
2021/08/23 06:42:10;;;;;;;13.87;6.17;;;;;;;;;;5070640;28;20450;-84
2021/08/23 06:44:36;;;;;;;17.47;6.90;;;;;;;;;;5059850;28;20426;-84
2021/08/23 06:47:01;;;;;;;9.20;6.03;;;17.50;1.00;;;;;;5065866;28;20901;-84
2021/08/23 06:49:27;;;;;;;14.73;6.53;;;;;;;;;;5087764;28;20433;-88
2021/08/23 06:51:53;;;;;;;10.07;6.60;;;;;;;;;;5071085;28;20633;-88
2021/08/23 06:54:19;;;;;;;12.80;6.70;;;17.70;1.00;;;;;;5072882;28;20418;-88
2021/08/23 06:56:44;;;;;;;13.73;6.63;;;17.80;1.00;;;;;;5072576;28;20496;-87
2021/08/23 06:59:10;;;;;;;8.30;6.17;;;17.80;1.00;;;;;;5064207;28;20185;-87
2021/08/23 07:01:36;;;;;;;13.90;6.73;;;;;;;;;;5067993;28;20233;-87
2021/08/23 07:04:03;;;;;;;8.40;6.33;;;;;;;;;;5061290;28;20437;-87
2021/08/23 07:06:28;;;;;;;9.37;5.60;;;18.10;1.00;;;;;;5080394;28;20476;-87
2021/08/23 07:08:54;;;;;;;8.40;6.30;;;;;;;;;;5078962;28;20872;-87
2021/08/23 07:11:20;;;;;;;10.93;5.67;;;18.40;1.00;;;;;;5062162;28;20423;-87
2021/08/23 07:13:46;;;;;;;8.50;6.10;;;18.50;1.00;;;;;;5055596;28;20472;-79
2021/08/23 07:16:11;;;;;;;7.20;5.80;;;18.80;1.00;;;;;;5068988;28;20201;-78
2021/08/23 07:18:37;;;;;;;7.60;6.00;;;18.90;1.00;;;;;;5071495;28;20170;-78
2021/08/23 07:21:03;;;;;;;9.97;5.47;;;19.20;1.00;;;;;;5072495;28;20197;-78
2021/08/23 07:23:29;;;;;;;10.90;5.57;;;19.30;1.00;;;;;;5061758;28;20209;-78
2021/08/23 07:25:56;;;;;;;12.50;5.43;;;19.40;1.00;;;;;;5071966;28;20461;-78
2021/08/23 07:28:21;;;;;;;11.83;5.23;;;19.50;1.00;;;;;;5070794;28;20416;-78
2021/08/23 07:30:47;;;;;;;10.87;5.93;;;19.60;1.00;;;;;;5072848;28;21000;-78
2021/08/23 07:33:13;;;;;;;10.27;6.33;;;19.50;1.00;;;;;;5067919;28;20227;-78
2021/08/23 07:35:39;;;;;;;12.73;6.50;;;19.60;1.00;;;;;;5071388;28;20194;-77
2021/08/23 07:38:04;;;;;;;13.27;5.93;;;19.60;1.00;;;;;;5088642;28;20173;-78
2021/08/23 07:40:31;;;;;;;6.00;5.40;;;19.70;1.00;;;;;;5074826;28;20201;-78
2021/08/23 07:42:56;;;;;;;10.43;6.90;;;19.70;1.00;;;;;;5069194;28;20173;-77
2021/08/23 07:45:23;;;;;;;10.33;5.93;;;19.70;1.00;;;;;;5068432;28;20404;-78
2021/08/23 07:47:48;;;;;;;10.67;7.10;;;19.80;1.00;;;;;;5066945;28;20863;-77
2021/08/23 07:50:15;;;;;;;8.20;5.33;;;19.80;1.00;;;;;;5054333;28;20433;-77
2021/08/23 07:52:41;;;;;;;7.20;5.20;;;19.90;1.00;;;;;;5062719;28;20247;-77
2021/08/23 07:55:07;;;;;;;7.37;4.80;;;20.00;1.00;;;;;;5069452;28;20512;-78
2021/08/23 07:57:33;;;;;;;7.77;5.20;;;20.10;1.00;;;;;;5060326;28;20433;-78
2021/08/23 08:00:05;;;;;;;7.13;5.43;;;20.10;1.00;;;;;;5060873;28;20888;-78
2021/08/23 08:02:31;;;;;;;7.37;5.80;;;20.30;1.00;;;;;;5071879;28;20195;-78
2021/08/23 08:04:56;;;;;;;8.90;5.50;;;20.60;1.00;;;;;;5068368;28;20522;-78
2021/08/23 08:07:22;;;;;;;9.90;5.77;;;20.80;1.00;;;;;;5066654;28;20187;-78
2021/08/23 08:09:47;;;;;;;14.17;6.60;;;21.10;1.00;;;;;;5056224;28;20728;-78
2021/08/23 08:12:13;;;;;;;11.33;6.00;;;21.30;1.00;;;;;;5069623;28;20195;-78
2021/08/23 08:14:39;;;;;;;16.20;5.53;;;21.40;1.00;;;;;;5074736;28;20278;-78
2021/08/23 08:17:04;;;;;;;9.23;6.23;;;21.60;1.00;;;;;;5063436;28;20196;-78
2021/08/23 08:19:33;;;;;;;7.73;5.47;;;21.60;1.00;;;;;;5055831;28;20178;-77
2021/08/23 08:22:04;;;;;;;7.10;5.60;;;21.60;1.00;;;;;;5062495;28;20250;-77
2021/08/23 08:24:30;;;;;;;8.13;6.47;;;21.60;1.00;;;;;;5056276;28;20423;-78
2021/08/23 08:26:55;;;;;;;8.60;6.20;;;21.60;1.00;;;;;;5058773;28;20418;-78
2021/08/23 08:29:21;;;;;;;9.30;5.93;;;21.60;1.00;;;;;;5066394;28;20641;-78
2021/08/23 08:31:47;;;;;;;9.43;6.13;;;21.60;1.00;;;;;;5055469;28;20185;-78
2021/08/23 08:34:13;;;;;;;7.63;4.70;;;;;;;;;;5065958;28;20276;-78
2021/08/23 08:36:38;;;;;;;7.50;4.90;;;21.80;1.00;;;;;;5075920;28;20165;-77
2021/08/23 08:39:04;;;;;;;8.73;5.60;;;22.00;1.00;;;;;;5075332;28;20403;-77
2021/08/23 08:41:30;;;;;;;8.63;7.13;;;22.20;1.00;;;;;;5068888;28;20206;-77
2021/08/23 08:43:56;;;;;;;7.10;5.60;;;22.20;1.00;;;;;;5055501;28;20175;-77
2021/08/23 08:46:23;;;;;;;8.70;5.50;;;22.40;1.00;;;;;;5054171;28;20771;-77
2021/08/23 08:48:49;;;;;;;5.80;5.20;;;22.50;1.00;;;;;;5059132;28;20195;-77
2021/08/23 08:51:15;;;;;;;7.63;5.53;;;22.60;1.00;;;;;;5057001;28;20500;-77
2021/08/23 08:53:41;;;;;;;9.93;5.40;;;22.70;1.00;;;;;;5072993;28;20898;-77
2021/08/23 08:56:07;;;;;;;9.23;5.40;;;22.90;1.00;;;;;;5055046;28;20426;-77
2021/08/23 08:58:33;;;;;;;11.43;5.70;;;22.80;1.00;;;;;;5061375;28;20523;-78
2021/08/23 09:01:01;;;;;;;7.00;5.90;;;22.90;1.00;;;;;;5054960;28;20202;-78
2021/08/23 09:03:28;;;;;;;9.07;5.97;;;22.70;1.00;;;;;;5074474;28;20420;-78
2021/08/23 09:06:05;;;;;;;9.60;6.07;;;22.80;1.00;;;;;;5066318;28;20440;-77
2021/08/23 09:08:32;;;;;;;7.20;5.17;;;22.80;1.00;;;;;;5062897;28;20430;-77
2021/08/23 09:11:14;;;;;;;6.37;5.63;;;22.90;1.00;;;;;;5073718;28;20410;-77
2021/08/23 09:13:41;;;;;;;13.57;6.97;;;22.80;1.00;;;;;;5058951;28;20412;-78
2021/08/23 09:16:08;;;;;;;9.60;5.80;;;;;;;;;;5054434;28;20484;-78
2021/08/23 09:18:35;;;;;;;10.87;6.53;;;22.60;1.00;;;;;;5054972;28;20413;-78
2021/08/23 09:21:05;;;;;;;7.10;5.43;;;22.70;1.00;;;;;;5053804;28;20449;-78
2021/08/23 09:23:39;;;;;;;6.00;5.33;;;22.80;1.00;;;;;;5055348;28;20445;-78
2021/08/23 09:26:07;;;;;;;12.43;5.57;;;23.00;1.00;;;;;;5068424;28;20833;-77
2021/08/23 09:28:32;;;;;;;11.70;5.40;;;23.40;1.00;;;;;;5056726;28;20410;-77
2021/08/23 09:31:01;;;;;;;12.27;6.00;;;23.40;1.00;;;;;;5054341;28;20916;-77
2021/08/23 09:33:26;;;;;;;7.77;5.40;;;23.80;1.00;;;;;;5060615;28;20660;-77
2021/08/23 09:35:52;;;;;;;8.23;5.40;;;23.90;1.00;;;;;;5063536;28;20597;-77
2021/08/23 09:38:18;;;;;;;9.00;5.77;;;23.90;1.00;;;;;;5055784;28;20655;-78
2021/08/23 09:40:46;;;;;;;8.30;5.80;;;23.80;1.00;;;;;;5063220;28;21001;-78
2021/08/23 09:43:16;;;;;;;6.77;5.00;;;23.80;1.00;;;;;;5074492;28;20432;-78
2021/08/23 09:45:50;;;;;;;6.00;5.33;;;23.80;1.00;;;;;;5071195;28;20472;-77
2021/08/23 09:48:16;;;;;;;6.23;4.60;;;23.60;1.00;;;;;;5062420;28;20435;-78
2021/08/23 09:50:47;;;;;;;7.40;5.53;;;23.60;1.00;;;;;;5055902;28;20908;-77
2021/08/23 09:53:21;;;;;;;6.40;5.17;;;23.30;1.00;;;;;;5075642;28;20423;-78
2021/08/23 09:55:50;;;;;;;8.33;4.83;;;23.30;1.00;;;;;;5068761;28;20428;-79
2021/08/23 09:58:16;;;;;;;6.17;5.47;;;23.00;1.00;;;;;;5069938;28;20465;-78
2021/08/23 10:00:43;;;;;;;6.80;5.17;;;23.00;1.00;;;;;;5054212;28;20505;-78
2021/08/23 10:03:15;;;;;;;7.17;5.50;;;22.80;1.00;;;;;;5053559;28;20404;-77
2021/08/23 10:05:47;;;;;;;7.67;5.30;;;22.60;1.00;;;;;;5068372;28;20429;-82
2021/08/23 10:08:17;;;;;;;6.40;5.17;;;22.60;1.00;;;;;;5053560;28;20429;-78
2021/08/23 10:10:44;;;;;;;5.80;4.90;;;22.50;1.00;;;;;;5052938;28;20450;-78
2021/08/23 10:13:10;;;;;;;8.70;5.90;;;22.50;1.00;;;;;;5063691;28;20436;-77
2021/08/23 10:15:37;;;;;;;9.90;5.33;;;22.50;1.00;;;;;;5062983;28;20420;-77
2021/08/23 10:18:02;;;;;;;6.03;5.33;;;22.50;1.00;;;;;;5069131;28;20468;-77
2021/08/23 10:20:28;;;;;;;8.20;6.07;;;22.40;1.00;;;;;;5071467;28;21003;-77
2021/08/23 10:22:55;;;;;;;7.40;6.37;;;22.40;1.00;;;;;;5059952;28;20237;-77
2021/08/23 10:25:22;;;;;;;8.93;7.13;;;22.40;1.00;;;;;;5061598;28;20200;-78
2021/08/23 10:27:48;;;;;;;7.07;5.90;;;22.40;1.00;;;;;;5071750;28;20417;-77
2021/08/23 10:30:23;;;;;;;8.43;5.77;;;22.40;1.00;;;;;;5072426;28;20384;-77
2021/08/23 10:32:49;;;;;;;7.00;5.60;;;22.40;1.00;;;;;;5074904;28;20411;-78
2021/08/23 10:35:15;;;;;;;8.93;6.67;;;22.40;1.00;;;;;;5052393;28;20429;-78
2021/08/23 10:37:43;;;;;;;6.70;5.90;;;22.50;1.00;;;;;;5053228;28;20511;-78
2021/08/23 10:40:10;;;;;;;6.90;5.73;;;22.50;1.00;;;;;;5051178;28;20547;-78
2021/08/23 10:42:42;;;;;;;9.23;6.23;;;22.80;1.00;;;;;;5064284;28;20447;-78
2021/08/23 10:45:10;;;;;;;6.43;5.50;;;23.10;1.00;;;;;;5071920;28;20479;-78
2021/08/23 10:47:36;;;;;;;6.80;5.33;;;23.30;1.00;;;;;;5072124;28;20777;-78
2021/08/23 10:50:03;;;;;;;7.20;5.53;;;23.30;1.00;;;;;;5056457;28;20430;-78
2021/08/23 10:52:34;;;;;;;7.90;6.53;;;23.60;1.00;;;;;;5051509;28;20635;-78
2021/08/23 10:55:00;;;;;;;7.30;6.27;;;23.60;1.00;;;;;;5052237;28;20391;-78
2021/08/23 10:57:29;;;;;;;6.20;5.60;;;23.60;1.00;;;;;;5063045;28;20414;-78
2021/08/23 11:00:09;;;;;;;10.60;6.00;;;24.00;1.00;;;;;;5067934;28;20513;-78
2021/08/23 11:02:37;;;;;;;10.03;5.83;;;24.00;1.00;;;;;;5059414;28;20471;-79
2021/08/23 11:05:22;;;;;;;7.00;5.73;;;24.20;1.00;;;;;;5067148;28;20470;-78
2021/08/23 11:07:58;;;;;;;12.00;5.83;;;24.50;1.00;;;;;;5058157;28;20504;-78
2021/08/23 11:10:26;;;;;;;16.13;8.30;;;24.40;1.00;;;;;;5068077;28;20420;-78
2021/08/23 11:12:56;;;;;;;6.40;5.33;;;24.40;1.00;;;;;;5071689;28;20420;-78
2021/08/23 11:15:29;;;;;;;10.23;6.10;;;24.40;1.00;;;;;;5071845;28;20447;-78
2021/08/23 11:18:15;;;;;;;6.40;5.80;;;24.30;1.00;;;;;;5068700;28;20485;-78
2021/08/23 11:20:51;;;;;;;11.43;5.97;;;24.10;1.00;;;;;;5058737;28;20459;-79
2021/08/23 11:23:23;;;;;;;8.93;6.60;;;24.70;1.00;;;;;;5062531;28;20436;-78
2021/08/23 11:25:51;;;;;;;8.10;5.47;;;24.80;1.00;;;;;;5078208;28;20421;-78
2021/08/23 11:28:20;;;;;;;8.67;5.47;;;25.30;1.00;;;;;;5062329;28;20398;-79
2021/08/23 11:30:49;;;;;;;5.73;5.00;;;25.50;1.00;;;;;;5065035;28;20471;-78
2021/08/23 11:33:34;;;;;;;6.93;5.70;;;25.60;1.00;;;;;;5070423;28;20519;-79
2021/08/23 11:36:02;;;;;;;8.33;5.13;;;26.00;1.00;;;;;;5052502;28;20526;-79
2021/08/23 11:38:35;;;;;;;6.67;5.23;;;25.90;1.00;;;;;;5057367;28;20469;-78
2021/08/23 11:41:03;;;;;;;7.67;6.20;;;26.00;1.00;;;;;;5072475;28;20798;-80
2021/08/23 11:43:30;;;;;;;7.93;5.90;;;25.80;1.00;;;;;;5072165;28;20415;-79
2021/08/23 11:45:58;;;;;;;8.93;5.43;;;25.80;1.00;;;;;;5070584;28;20800;-78
2021/08/23 11:48:24;;;;;;;7.13;5.07;;;25.80;1.00;;;;;;5072077;28;20835;-79
2021/08/23 11:50:51;;;;;;;7.77;6.30;;;25.60;1.00;;;;;;5055639;28;20433;-79
2021/08/23 11:53:18;;;;;;;6.93;5.80;;;25.40;1.00;;;;;;5060751;28;20923;-78
2021/08/23 11:55:46;;;;;;;6.30;5.40;;;25.30;1.00;;;;;;5057533;28;20436;-78
2021/08/23 11:58:21;;;;;;;9.77;5.53;;;25.20;1.00;;;;;;5079653;28;20780;-78
2021/08/23 12:01:03;;;;;;;8.37;5.97;;;25.30;1.00;;;;;;5065341;28;20970;-78
2021/08/23 12:03:37;;;;;;;7.40;6.17;;;25.30;1.00;;;;;;5056495;28;20415;-77
2021/08/23 12:06:06;;;;;;;7.20;6.20;;;25.40;1.00;;;;;;5056876;28;20388;-77
2021/08/23 12:08:58;;;;;;;6.10;5.30;;;25.70;1.00;;;;;;5057113;28;20997;-78
2021/08/23 12:11:45;;;;;;;9.80;5.33;;;25.90;1.00;;;;;;5056871;28;20396;-77
2021/08/23 12:14:28;;;;;;;7.83;5.87;;;26.10;1.00;;;;;;5057126;28;20804;-77
2021/08/23 12:16:55;;;;;;;7.63;5.93;;;26.40;1.00;;;;;;5056940;28;20395;-77
2021/08/23 12:19:26;;;;;;;7.93;5.90;;;26.40;1.00;;;;;;5064804;28;20943;-77
2021/08/23 12:22:06;;;;;;;5.73;5.07;;;26.50;1.00;;;;;;5076855;28;20528;-78
2021/08/23 12:24:33;;;;;;;5.87;4.90;;;26.70;1.00;;;;;;5076503;28;20431;-78
2021/08/23 12:27:00;;;;;;;8.50;5.10;;;26.60;1.00;;;;;;5076466;28;20382;-78
2021/08/23 12:29:41;;;;;;;6.40;5.43;;;26.90;1.00;;;;;;5065651;28;20538;-79
2021/08/23 12:32:11;;;;;;;5.40;4.90;;;27.20;1.00;;;;;;5072713;28;20437;-78
2021/08/23 12:34:42;;;;;;;8.20;5.13;;;27.20;1.00;;;;;;5056320;28;20402;-78
2021/08/23 12:37:09;;;;;;;8.30;5.40;;;;;;;;;;5064053;28;20445;-78
2021/08/23 12:39:35;;;;;;;6.53;5.67;;;27.20;1.00;;;;;;5072358;28;20421;-78
2021/08/23 12:42:04;;;;;;;5.67;5.07;;;27.10;1.00;;;;;;5074328;28;20449;-79
2021/08/23 12:44:29;;;;;;;6.47;4.90;;;26.80;1.00;;;;;;5064108;28;20430;-78
2021/08/23 12:46:55;;;;;;;8.60;5.23;;;26.70;1.00;;;;;;5057509;28;20406;-78
2021/08/23 12:49:22;;;;;;;5.80;5.13;;;26.20;1.00;;;;;;5055096;28;20190;-78
2021/08/23 12:51:49;;;;;;;5.50;4.97;;;26.20;1.00;;;;;;5059829;28;20444;-78
2021/08/23 12:54:14;;;;;;;6.27;4.77;;;25.80;1.00;;;;;;5056596;28;20488;-78
2021/08/23 12:56:40;;;;;;;10.87;5.30;;;25.10;1.00;;;;;;5071045;28;20439;-78
2021/08/23 12:59:07;;;;;;;5.73;4.80;;;24.80;1.00;;;;;;5059540;28;20178;-78
2021/08/23 13:01:34;;;;;;;11.27;4.20;;;23.60;1.00;;;;;;5072536;28;20813;-78
2021/08/23 13:04:00;;;;;;;6.47;4.40;;;23.50;1.00;;;;;;5066942;28;20922;-78
2021/08/23 13:06:27;;;;;;;6.67;4.40;;;22.80;1.00;;;;;;5061950;28;20444;-78
2021/08/23 13:08:53;;;;;;;6.67;5.50;;;22.70;1.00;;;;;;5074386;28;20428;-78
2021/08/23 13:11:19;;;;;;;9.80;4.80;;;22.40;1.00;;;;;;5070500;28;20590;-79
2021/08/23 13:13:45;;;;;;;8.90;5.30;;;22.20;1.00;;;;;;5072996;28;20436;-78
2021/08/23 13:16:58;;;;;;;7.43;5.37;;;22.00;1.00;;;;;;5069058;28;20196;-84
2021/08/23 13:19:29;;;;;;;8.50;5.43;;;21.80;1.00;;;;;;5073260;28;20932;-82
2021/08/23 13:22:22;;;;;;;6.50;4.80;;;21.80;1.00;;;;;;5070237;28;20462;-83